Weather at Friday Harbor Seaplane Base

Public forecast

Using degrees Fahrenheit for public forecast. Weather courtesy of forecast.io.

Closest aviation weather report (METAR) to Friday Harbor Seaplane Base

Closest report is Friday Harbor Airport, 1.0 nm (1.9 km) SW.

2024/05/30 08:53 (retrieved 47 minutes ago)

KFHR 300853Z AUTO 26005KT 10SM OVC060 10/06 A3038 RMK AO2 SLP286 T01000056

Closest aviation forecast (TAF) to Friday Harbor Seaplane Base

Forecast is more than 12 hours old.

Closest forecast is Victoria Harbour Seaplane Base, 15.9 nm (29.5 km) WSW.

2024/05/29 21:00 (retrieved 13 hours ago)

TAF CYWH 292046Z 2921/3004 24015G25KT P6SM SCT030 RMK NXT FCST BY 301400Z